• NC Software is proud to announce the release of APDL - Airline Pilot Logbook version 10.0. Click here to view APDL on the Apple App store and install now.
  • Logbook Pro for Apple iOS version 8.1 is now available on the App Store. Major update including signature endorsements and dark/light theme support. Click here to install now.

Metar in MAF

ksu_aviator

GO CATS
Joined
Dec 1, 2001
Posts
1,327
Total Time
4100
KMAF 270526Z AUTO 05021G81KT 3/4SM +RA BR SQ FEW002 BKN030 OVC049 19/17 A3022 RMK AO2 PK WND 36081/0519 WSHFT 0455 TSB08E26RAB0459 P0020

KMAF 270521Z AUTO 01039G81KT 1 1/4SM -TSRA BR SQ FEW002 BKN030 OVC049 18/17 A3017 RMK AO2 PK WND 36081/0519 WSHFT 0455 LTG DSNT ALQDS TSB08RAB0459 P0001

Now dat's some wind!
 

BushwickBill

Registered Abuser
Joined
Jul 13, 2005
Posts
822
Total Time
more
I was stuck in Vero Beach for hurricane Francis and Jean. During Francis we were listening to the atis for awhile hoping to see some wild numbers. After it got up into the seventies the wind was "missing". I'm guessing that part of the AWOS system was missing. Most likely hit by a flying tree.

Anyway suprised to see the AWOS was holding up to the 83 knot gusts.
 

Coool Hand Luke

Well-known member
Joined
May 7, 2006
Posts
857
Total Time
5,600
I'll see your MAF metar and raise you an AMA metar!
 
Top